createdAt,value
2022-11-29T00:00:15.515Z,14.70
2022-11-29T00:04:43.775Z,13.50
2022-11-29T00:08:52.257Z,14.30
2022-11-29T00:12:59.879Z,14.30
2022-11-29T00:17:07.833Z,13.50
2022-11-29T00:21:15.267Z,13.90
2022-11-29T00:25:23.237Z,12.90
2022-11-29T00:29:32.291Z,15.70
2022-11-29T00:33:39.961Z,13.80
2022-11-29T00:37:47.461Z,13.20
2022-11-29T00:41:55.791Z,13.30
2022-11-29T00:46:03.793Z,13.60
2022-11-29T00:50:12.922Z,14.10
2022-11-29T00:54:20.626Z,17.00
2022-11-29T00:58:28.337Z,15.70
2022-11-29T01:02:36.050Z,13.20
2022-11-29T01:06:44.325Z,14.30
2022-11-29T01:10:52.021Z,14.40
2022-11-29T01:15:00.879Z,13.90
2022-11-29T01:19:11.471Z,12.30
2022-11-29T01:23:18.870Z,16.00
2022-11-29T01:27:26.329Z,16.50
2022-11-29T01:31:36.649Z,14.90
2022-11-29T01:35:50.218Z,13.50
2022-11-29T01:39:57.851Z,13.50
2022-11-29T01:44:08.261Z,12.40
2022-11-29T01:48:17.618Z,15.00
2022-11-29T01:52:27.853Z,15.90
2022-11-29T01:56:36.587Z,14.30
2022-11-29T02:00:43.885Z,13.30
2022-11-29T02:04:52.827Z,14.00
2022-11-29T02:09:01.512Z,13.30
2022-11-29T02:13:14.816Z,12.60
2022-11-29T02:17:29.865Z,12.40
2022-11-29T02:21:44.061Z,15.80
2022-11-29T02:26:03.941Z,15.00
2022-11-29T02:30:35.867Z,15.10
2022-11-29T02:34:55.074Z,14.10
2022-11-29T02:39:35.726Z,13.80
2022-11-29T02:44:10.551Z,13.10
2022-11-29T02:48:34.690Z,13.30
2022-11-29T02:52:49.877Z,13.10
2022-11-29T02:57:00.476Z,15.40
2022-11-29T03:01:16.848Z,15.70
2022-11-29T03:05:30.465Z,14.50
2022-11-29T03:09:44.187Z,13.90
2022-11-29T03:13:58.388Z,14.10
2022-11-29T03:18:17.197Z,13.80
2022-11-29T03:22:36.550Z,12.60
2022-11-29T03:26:47.966Z,13.60
2022-11-29T03:31:00.131Z,17.00
2022-11-29T03:35:12.012Z,16.40
2022-11-29T03:39:26.557Z,16.60
2022-11-29T03:43:41.366Z,14.80
2022-11-29T03:47:58.033Z,14.50
2022-11-29T03:52:10.037Z,14.40
2022-11-29T03:56:32.284Z,13.30
2022-11-29T04:00:57.525Z,14.60
2022-11-29T04:05:32.974Z,15.90
2022-11-29T04:09:57.954Z,16.20
2022-11-29T04:14:35.129Z,15.80
2022-11-29T04:23:55.772Z,14.30
2022-11-29T04:28:16.827Z,14.70
2022-11-29T04:32:40.471Z,13.40
2022-11-29T04:37:02.593Z,15.80
2022-11-29T04:41:21.850Z,16.20
2022-11-29T04:45:58.900Z,15.70
2022-11-29T04:50:18.598Z,14.30
2022-11-29T04:54:32.501Z,13.80
2022-11-29T04:58:42.798Z,13.90
2022-11-29T05:02:55.953Z,13.50
2022-11-29T05:07:07.637Z,16.10
2022-11-29T05:11:26.472Z,16.80
2022-11-29T05:15:56.632Z,15.50
2022-11-29T05:20:23.965Z,13.80
2022-11-29T05:24:43.176Z,12.70
2022-11-29T05:28:56.094Z,12.60
2022-11-29T05:33:11.787Z,13.90
2022-11-29T05:37:28.401Z,11.40
2022-11-29T05:41:47.757Z,16.30
2022-11-29T05:46:01.538Z,15.80
2022-11-29T05:50:16.306Z,12.50
2022-11-29T05:54:29.858Z,11.80
2022-11-29T05:58:48.005Z,12.30
2022-11-29T06:03:00.815Z,11.30
2022-11-29T06:07:13.011Z,15.40
2022-11-29T06:11:25.228Z,16.70
2022-11-29T06:15:48.843Z,16.30
2022-11-29T06:20:09.294Z,13.60
2022-11-29T06:24:27.344Z,12.30
2022-11-29T06:28:43.764Z,11.90
2022-11-29T06:32:56.498Z,10.00
2022-11-29T06:37:10.173Z,13.80
2022-11-29T06:41:22.519Z,12.20
2022-11-29T06:45:31.231Z,11.40
2022-11-29T06:49:43.704Z,10.50
2022-11-29T06:53:55.490Z,10.70
2022-11-29T06:58:11.397Z,11.20
2022-11-29T07:02:33.681Z,12.10
2022-11-29T07:06:43.122Z,12.60
2022-11-29T07:10:54.244Z,12.40
2022-11-29T07:15:03.198Z,10.60
2022-11-29T07:19:16.932Z,12.30
2022-11-29T07:23:32.686Z,11.70
2022-11-29T07:27:54.899Z,10.60
2022-11-29T07:32:09.301Z,10.10
2022-11-29T07:36:20.211Z,12.30
2022-11-29T07:40:37.334Z,11.30
2022-11-29T07:44:52.325Z,9.70
2022-11-29T07:49:00.492Z,10.50
2022-11-29T07:53:08.432Z,12.30
2022-11-29T07:57:16.151Z,11.80
2022-11-29T08:01:23.548Z,11.10
2022-11-29T08:05:31.309Z,13.60
2022-11-29T08:09:38.998Z,12.90
2022-11-29T08:13:46.866Z,13.10
2022-11-29T08:17:55.607Z,12.50
2022-11-29T08:22:03.955Z,11.30
2022-11-29T08:26:12.845Z,11.20
2022-11-29T08:30:22.517Z,11.40
2022-11-29T08:34:29.999Z,10.90
2022-11-29T08:38:37.574Z,12.90
2022-11-29T08:42:45.553Z,11.60
2022-11-29T08:47:10.782Z,12.30
2022-11-29T08:51:18.667Z,11.50
2022-11-29T08:55:27.789Z,12.10
2022-11-29T08:59:35.338Z,11.10
2022-11-29T09:04:02.916Z,10.40
2022-11-29T09:08:10.771Z,11.50
2022-11-29T09:12:18.324Z,12.90
2022-11-29T09:16:27.882Z,12.90
2022-11-29T09:20:35.418Z,13.80
2022-11-29T09:24:43.127Z,12.60
2022-11-29T09:28:52.483Z,12.30
2022-11-29T09:33:00.720Z,11.30
2022-11-29T09:37:09.439Z,13.10
2022-11-29T09:41:41.968Z,13.50
2022-11-29T09:45:55.275Z,14.30
2022-11-29T09:50:21.726Z,14.70
2022-11-29T09:54:39.487Z,14.70
2022-11-29T09:58:51.458Z,13.70
2022-11-29T10:03:03.066Z,14.10
2022-11-29T10:07:18.185Z,11.60
2022-11-29T10:11:31.799Z,13.70
2022-11-29T10:15:42.735Z,12.70
2022-11-29T10:19:54.286Z,15.70
2022-11-29T10:24:05.777Z,14.80
2022-11-29T10:28:17.676Z,14.10
2022-11-29T10:32:27.929Z,13.30
2022-11-29T10:36:41.314Z,13.90
2022-11-29T10:40:51.271Z,13.00
2022-11-29T10:44:59.696Z,13.50
2022-11-29T10:49:14.305Z,15.70
2022-11-29T10:53:24.585Z,16.00
2022-11-29T10:57:32.781Z,13.70
2022-11-29T11:01:42.819Z,13.40
2022-11-29T11:06:02.563Z,12.40
2022-11-29T11:10:22.837Z,13.50
2022-11-29T11:14:33.099Z,12.60
2022-11-29T11:18:41.180Z,11.80
2022-11-29T11:23:00.646Z,13.40
2022-11-29T11:27:08.041Z,13.80
2022-11-29T11:31:16.307Z,14.10
2022-11-29T11:35:26.986Z,13.70
2022-11-29T11:39:34.772Z,15.80
2022-11-29T11:43:42.692Z,14.30
2022-11-29T11:47:52.098Z,15.30
2022-11-29T11:51:59.957Z,13.40
2022-11-29T11:56:10.107Z,14.10
2022-11-29T12:05:17.558Z,15.10
2022-11-29T12:09:32.728Z,13.90
2022-11-29T12:13:44.898Z,12.00
2022-11-29T12:17:54.572Z,11.70
2022-11-29T12:22:08.305Z,12.80
2022-11-29T12:26:48.898Z,10.90
2022-11-29T12:30:56.721Z,11.20
2022-11-29T12:35:18.989Z,13.80
2022-11-29T12:39:39.260Z,12.60
2022-11-29T12:43:55.440Z,10.80
2022-11-29T12:48:10.523Z,11.70
2022-11-29T12:52:25.643Z,11.90
2022-11-29T12:56:38.494Z,11.70
2022-11-29T13:00:51.770Z,11.40
2022-11-29T13:05:03.687Z,10.50
2022-11-29T13:09:35.437Z,11.30
2022-11-29T13:13:44.925Z,11.70
2022-11-29T13:17:59.150Z,11.70
2022-11-29T13:22:11.048Z,13.20
2022-11-29T13:26:19.132Z,13.30
2022-11-29T13:30:26.889Z,13.80
2022-11-29T13:34:37.218Z,13.70
2022-11-29T13:38:47.389Z,13.40
2022-11-29T13:42:59.982Z,13.50
2022-11-29T13:47:12.516Z,13.00
2022-11-29T13:51:32.929Z,13.30
2022-11-29T13:55:48.131Z,13.50
2022-11-29T13:59:55.771Z,13.60
2022-11-29T14:04:12.479Z,13.00
2022-11-29T14:08:54.485Z,14.60
2022-11-29T14:13:02.141Z,13.40
2022-11-29T14:17:48.728Z,13.80
2022-11-29T14:22:31.981Z,12.90
2022-11-29T14:26:39.296Z,12.90
2022-11-29T14:30:55.440Z,12.70
2022-11-29T14:35:07.755Z,13.10
2022-11-29T14:39:31.867Z,13.00
2022-11-29T14:43:41.794Z,12.70
2022-11-29T14:47:52.048Z,16.90
2022-11-29T14:52:33.628Z,16.00
2022-11-29T14:56:44.533Z,14.40
2022-11-29T15:01:10.909Z,14.70
2022-11-29T15:05:21.650Z,15.70
2022-11-29T15:09:31.338Z,16.70
2022-11-29T15:13:47.766Z,14.40
2022-11-29T15:18:01.160Z,13.90
2022-11-29T15:22:15.803Z,14.60
2022-11-29T15:26:25.005Z,15.60
2022-11-29T15:30:35.715Z,15.00
2022-11-29T15:34:50.829Z,15.20
2022-11-29T15:39:01.896Z,15.50
2022-11-29T15:43:18.388Z,13.90
2022-11-29T15:47:28.086Z,14.40
2022-11-29T15:51:38.772Z,14.80
2022-11-29T15:55:49.860Z,14.30
2022-11-29T15:59:59.936Z,14.80
2022-11-29T16:04:08.790Z,16.50
2022-11-29T16:08:19.554Z,16.60
2022-11-29T16:12:27.484Z,17.90
2022-11-29T16:16:35.731Z,19.60
2022-11-29T16:20:45.615Z,18.70
2022-11-29T16:25:06.305Z,19.30
2022-11-29T16:29:24.772Z,16.80
2022-11-29T16:33:32.798Z,17.00
2022-11-29T16:37:43.961Z,17.50
2022-11-29T16:42:05.930Z,18.80
2022-11-29T16:46:34.853Z,19.80
2022-11-29T16:50:42.324Z,20.50
2022-11-29T16:54:50.569Z,18.80
2022-11-29T16:59:25.255Z,21.40
2022-11-29T17:03:30.251Z,19.10
2022-11-29T17:07:39.558Z,17.90
2022-11-29T17:11:47.632Z,17.40
2022-11-29T17:15:55.319Z,16.10
2022-11-29T17:20:02.670Z,16.60
2022-11-29T17:24:13.563Z,18.00
2022-11-29T17:28:20.877Z,16.70
2022-11-29T17:32:28.387Z,15.70
2022-11-29T17:36:36.264Z,14.70
2022-11-29T17:40:45.078Z,14.80
2022-11-29T17:44:54.609Z,16.30
2022-11-29T17:49:04.111Z,15.10
2022-11-29T17:53:11.739Z,15.00
2022-11-29T17:57:20.145Z,14.90
2022-11-29T18:01:47.477Z,15.50
2022-11-29T18:06:04.551Z,16.60
2022-11-29T18:10:13.134Z,15.60
2022-11-29T18:14:23.053Z,14.50
2022-11-29T18:18:30.441Z,13.90
2022-11-29T18:22:38.108Z,13.30
2022-11-29T18:26:46.058Z,15.90
2022-11-29T18:30:54.931Z,15.90
2022-11-29T18:35:05.004Z,14.40
2022-11-29T18:39:15.173Z,14.60
2022-11-29T18:43:22.597Z,15.90
2022-11-29T18:47:33.128Z,17.50
2022-11-29T18:51:42.477Z,19.80
2022-11-29T18:55:50.372Z,19.90
2022-11-29T18:59:57.787Z,15.70
2022-11-29T19:04:05.402Z,14.70
2022-11-29T19:08:13.311Z,14.30
2022-11-29T19:12:21.078Z,13.70
2022-11-29T19:16:31.175Z,12.40
2022-11-29T19:20:38.896Z,12.20
2022-11-29T19:24:47.210Z,12.50
2022-11-29T19:28:55.595Z,10.70
2022-11-29T19:33:03.255Z,12.30
2022-11-29T19:37:11.209Z,14.10
2022-11-29T19:41:20.616Z,14.10
2022-11-29T19:45:28.366Z,13.00
2022-11-29T19:49:46.134Z,13.50
2022-11-29T19:53:56.996Z,13.40
2022-11-29T19:58:04.582Z,13.20
2022-11-29T20:02:12.758Z,12.90
2022-11-29T20:06:21.031Z,12.20
2022-11-29T20:10:29.039Z,11.80
2022-11-29T20:14:36.875Z,13.40
2022-11-29T20:18:50.623Z,14.30
2022-11-29T20:22:58.842Z,13.20
2022-11-29T20:27:06.884Z,12.30
2022-11-29T20:31:16.825Z,12.60
2022-11-29T20:35:25.473Z,12.00
2022-11-29T20:39:42.095Z,12.30
2022-11-29T20:43:54.923Z,11.10
2022-11-29T20:48:09.741Z,11.30
2022-11-29T20:52:32.200Z,14.50
2022-11-29T20:56:39.655Z,15.90
2022-11-29T21:00:47.384Z,18.60
2022-11-29T21:04:56.492Z,19.60
2022-11-29T21:09:04.185Z,20.20
2022-11-29T21:13:14.228Z,20.50
2022-11-29T21:17:24.830Z,20.70
2022-11-29T21:21:39.388Z,22.10
2022-11-29T21:25:54.550Z,22.40
2022-11-29T21:30:05.572Z,22.60
2022-11-29T21:34:13.288Z,26.30
2022-11-29T21:38:23.661Z,25.70
2022-11-29T21:42:31.300Z,26.30
2022-11-29T21:46:39.368Z,23.70
2022-11-29T21:50:52.109Z,23.90
2022-11-29T21:54:59.964Z,23.20
2022-11-29T21:59:07.449Z,24.00
2022-11-29T22:03:15.376Z,22.70
2022-11-29T22:07:23.010Z,25.70
2022-11-29T22:11:34.548Z,26.00
2022-11-29T22:15:42.568Z,25.40
2022-11-29T22:19:50.805Z,25.20
2022-11-29T22:23:58.342Z,24.60
2022-11-29T22:28:05.932Z,24.80
2022-11-29T22:32:13.701Z,24.20
2022-11-29T22:36:21.626Z,27.40
2022-11-29T22:40:29.401Z,29.70
2022-11-29T22:44:37.516Z,29.40
2022-11-29T22:48:45.595Z,27.20
2022-11-29T22:52:52.724Z,26.00
2022-11-29T22:57:00.470Z,25.90
2022-11-29T23:01:12.310Z,23.20
2022-11-29T23:05:21.271Z,31.90
2022-11-29T23:09:28.400Z,28.20
2022-11-29T23:13:37.401Z,32.60
2022-11-29T23:17:45.453Z,28.20
2022-11-29T23:21:53.281Z,28.50
2022-11-29T23:26:01.259Z,29.20
2022-11-29T23:30:11.797Z,29.60
2022-11-29T23:34:19.935Z,32.70
2022-11-29T23:38:27.897Z,33.60
2022-11-29T23:42:35.568Z,33.50
2022-11-29T23:46:42.928Z,27.70
2022-11-29T23:50:51.088Z,28.10
2022-11-29T23:54:58.729Z,29.10
2022-11-29T23:59:07.136Z,29.20
